Austin Straubel International Airport
KGRB : now visible

Airfield :











YOU CAN JOIN US ON...

 
LOGIN :

Register | Disclaimer

   EN    FR    IT 

 









Legend :    VFR   Marginal VFR   IFR   Intensive IFR   Very Intensive IFR
Visi :
Ceiling :
>= 8 km
>= 3000ft
5 to 8 km
1000 to 3000 ft
1500m to 5 km
500 to 1000 ft
800 to 1500m
200 to 500 ft
< 800m
< 200 ft
Symbols :   Thunderstorms  Fog  Heavy snow  Heavy precipitations  Wind > 20 kt






- Airport Elevation : 695 ft
- IATA code : GRB


KGRB - Austin Straubel International

CURRENT METAR :
  • 161153Z 24004KT 10SM OVC042 M08/M14 A3015 RMK AO2 SLP223 T10831144 11083 21128 55000

EXPIRED METARs :
  • 161053Z AUTO 23005KT 10SM OVC042 M09/M15 A3014 RMK AO2 SLP221 T10891150
  • 160953Z AUTO 22005KT 10SM OVC044 M10/M15 A3015 RMK AO2 SLP224 T11001150

TAF KGRB
Valid from the 16 at 12:00 until the 17 at 12:00 UTC


161120Z 1612/1712 23005KT P6SM OVC040
FM161600 27008KT P6SM SCT040
FM171000 27006KT P6SM BKN050



MET'MAP, your aeronautical weather chart ! - Copyright ORBIFLY December 2007 - Disclaimer

ORBIFLY MET'MAP TEAM :

Programming & Development : Alexandra Zaïnal
Concept & original design : Baudouin d'Aumeries
Assistance for programming : Marc-Olivier Méhu
Technical & hardware support : Manuel Goepfert

Contact : metmap@orbifly.com




SOURCES & CREDITS :

   NOAA       Earth
Advisory